sensor_id;sensor_type;location;lat;lon;timestamp;P1;durP1;ratioP1;P2;durP2;ratioP2
44000;SDS011;29660;42.892;24.710;2022-12-31T00:01:16;101.32;;;65.75;;
44000;SDS011;29660;42.892;24.710;2022-12-31T00:11:29;96.18;;;63.97;;
44000;SDS011;29660;42.892;24.710;2022-12-31T00:16:33;105.13;;;67.90;;
44000;SDS011;29660;42.892;24.710;2022-12-31T00:21:37;123.70;;;79.63;;
44000;SDS011;29660;42.892;24.710;2022-12-31T00:26:39;118.10;;;76.18;;
44000;SDS011;29660;42.892;24.710;2022-12-31T00:31:42;107.75;;;69.38;;
44000;SDS011;29660;42.892;24.710;2022-12-31T00:36:44;96.88;;;65.60;;
44000;SDS011;29660;42.892;24.710;2022-12-31T00:41:46;98.05;;;64.60;;
44000;SDS011;29660;42.892;24.710;2022-12-31T00:46:48;88.15;;;58.72;;
44000;SDS011;29660;42.892;24.710;2022-12-31T00:51:50;106.88;;;63.47;;
44000;SDS011;29660;42.892;24.710;2022-12-31T00:56:52;121.72;;;74.65;;
44000;SDS011;29660;42.892;24.710;2022-12-31T01:01:54;105.78;;;68.68;;
44000;SDS011;29660;42.892;24.710;2022-12-31T01:06:56;104.10;;;70.10;;
44000;SDS011;29660;42.892;24.710;2022-12-31T01:11:58;140.43;;;92.07;;
44000;SDS011;29660;42.892;24.710;2022-12-31T01:17:00;98.57;;;65.22;;
44000;SDS011;29660;42.892;24.710;2022-12-31T01:22:02;114.43;;;70.07;;
44000;SDS011;29660;42.892;24.710;2022-12-31T01:27:04;102.80;;;62.55;;
44000;SDS011;29660;42.892;24.710;2022-12-31T01:32:06;116.45;;;71.55;;
44000;SDS011;29660;42.892;24.710;2022-12-31T01:37:08;97.63;;;61.30;;
44000;SDS011;29660;42.892;24.710;2022-12-31T01:42:10;86.00;;;55.67;;
44000;SDS011;29660;42.892;24.710;2022-12-31T01:47:13;97.68;;;62.22;;
44000;SDS011;29660;42.892;24.710;2022-12-31T01:52:22;91.63;;;58.40;;
44000;SDS011;29660;42.892;24.710;2022-12-31T01:57:30;99.63;;;61.25;;
44000;SDS011;29660;42.892;24.710;2022-12-31T02:02:32;92.50;;;58.42;;
44000;SDS011;29660;42.892;24.710;2022-12-31T02:07:34;91.43;;;56.80;;
44000;SDS011;29660;42.892;24.710;2022-12-31T02:12:36;87.32;;;56.90;;
44000;SDS011;29660;42.892;24.710;2022-12-31T02:17:45;83.65;;;52.33;;
44000;SDS011;29660;42.892;24.710;2022-12-31T02:38:38;74.20;;;49.65;;
44000;SDS011;29660;42.892;24.710;2022-12-31T03:00:10;97.93;;;58.10;;
44000;SDS011;29660;42.892;24.710;2022-12-31T03:05:36;101.65;;;62.05;;
44000;SDS011;29660;42.892;24.710;2022-12-31T03:10:43;102.97;;;58.35;;
44000;SDS011;29660;42.892;24.710;2022-12-31T03:15:44;97.93;;;56.92;;
44000;SDS011;29660;42.892;24.710;2022-12-31T03:20:48;88.65;;;50.60;;
44000;SDS011;29660;42.892;24.710;2022-12-31T03:26:10;72.97;;;44.20;;
44000;SDS011;29660;42.892;24.710;2022-12-31T03:31:13;50.65;;;31.75;;
44000;SDS011;29660;42.892;24.710;2022-12-31T03:36:14;28.92;;;19.60;;
44000;SDS011;29660;42.892;24.710;2022-12-31T03:41:16;53.03;;;31.15;;
44000;SDS011;29660;42.892;24.710;2022-12-31T03:46:18;55.35;;;35.97;;
44000;SDS011;29660;42.892;24.710;2022-12-31T03:51:21;69.22;;;41.17;;
44000;SDS011;29660;42.892;24.710;2022-12-31T03:56:22;62.08;;;38.92;;
44000;SDS011;29660;42.892;24.710;2022-12-31T04:01:25;55.20;;;36.28;;
44000;SDS011;29660;42.892;24.710;2022-12-31T04:06:27;53.33;;;35.90;;
44000;SDS011;29660;42.892;24.710;2022-12-31T04:11:29;46.53;;;29.80;;
44000;SDS011;29660;42.892;24.710;2022-12-31T04:16:31;54.92;;;34.40;;
44000;SDS011;29660;42.892;24.710;2022-12-31T04:21:33;57.35;;;33.88;;
44000;SDS011;29660;42.892;24.710;2022-12-31T04:26:36;29.17;;;20.63;;
44000;SDS011;29660;42.892;24.710;2022-12-31T04:31:38;22.27;;;17.25;;
44000;SDS011;29660;42.892;24.710;2022-12-31T04:36:40;48.50;;;30.30;;
44000;SDS011;29660;42.892;24.710;2022-12-31T04:41:42;105.45;;;67.10;;
44000;SDS011;29660;42.892;24.710;2022-12-31T04:46:44;48.75;;;32.88;;
44000;SDS011;29660;42.892;24.710;2022-12-31T04:51:46;59.80;;;40.25;;
44000;SDS011;29660;42.892;24.710;2022-12-31T04:56:48;67.13;;;43.13;;
44000;SDS011;29660;42.892;24.710;2022-12-31T05:01:50;60.65;;;41.60;;
44000;SDS011;29660;42.892;24.710;2022-12-31T05:06:52;65.50;;;44.22;;
44000;SDS011;29660;42.892;24.710;2022-12-31T05:11:54;65.95;;;45.88;;
44000;SDS011;29660;42.892;24.710;2022-12-31T05:16:56;48.42;;;32.97;;
44000;SDS011;29660;42.892;24.710;2022-12-31T05:22:01;134.55;;;71.25;;
44000;SDS011;29660;42.892;24.710;2022-12-31T05:27:22;143.80;;;76.82;;
44000;SDS011;29660;42.892;24.710;2022-12-31T05:32:25;85.45;;;51.22;;
44000;SDS011;29660;42.892;24.710;2022-12-31T05:37:27;110.55;;;68.07;;
44000;SDS011;29660;42.892;24.710;2022-12-31T05:42:30;70.35;;;45.72;;
44000;SDS011;29660;42.892;24.710;2022-12-31T05:47:32;101.28;;;69.03;;
44000;SDS011;29660;42.892;24.710;2022-12-31T05:52:34;73.85;;;47.03;;
44000;SDS011;29660;42.892;24.710;2022-12-31T05:57:38;94.55;;;60.97;;
44000;SDS011;29660;42.892;24.710;2022-12-31T06:02:40;136.25;;;94.05;;
44000;SDS011;29660;42.892;24.710;2022-12-31T06:07:43;139.55;;;99.63;;
44000;SDS011;29660;42.892;24.710;2022-12-31T06:12:46;151.27;;;101.68;;
44000;SDS011;29660;42.892;24.710;2022-12-31T06:17:48;141.13;;;94.07;;
44000;SDS011;29660;42.892;24.710;2022-12-31T06:22:49;117.63;;;79.47;;
44000;SDS011;29660;42.892;24.710;2022-12-31T06:27:52;68.00;;;48.67;;
44000;SDS011;29660;42.892;24.710;2022-12-31T06:32:55;68.72;;;43.75;;
44000;SDS011;29660;42.892;24.710;2022-12-31T06:37:57;66.43;;;46.33;;
44000;SDS011;29660;42.892;24.710;2022-12-31T06:42:59;66.78;;;45.70;;
44000;SDS011;29660;42.892;24.710;2022-12-31T06:48:01;69.65;;;47.13;;
44000;SDS011;29660;42.892;24.710;2022-12-31T06:53:03;83.22;;;59.38;;
44000;SDS011;29660;42.892;24.710;2022-12-31T06:58:08;124.75;;;95.10;;
44000;SDS011;29660;42.892;24.710;2022-12-31T07:08:32;153.93;;;112.97;;
44000;SDS011;29660;42.892;24.710;2022-12-31T07:19:24;199.27;;;110.97;;
44000;SDS011;29660;42.892;24.710;2022-12-31T07:24:34;159.05;;;104.82;;
44000;SDS011;29660;42.892;24.710;2022-12-31T07:45:19;155.27;;;118.78;;
44000;SDS011;29660;42.892;24.710;2022-12-31T07:50:29;159.05;;;120.70;;
44000;SDS011;29660;42.892;24.710;2022-12-31T07:55:31;173.10;;;131.95;;
44000;SDS011;29660;42.892;24.710;2022-12-31T08:00:35;166.05;;;129.15;;
44000;SDS011;29660;42.892;24.710;2022-12-31T08:11:10;163.75;;;128.70;;
44000;SDS011;29660;42.892;24.710;2022-12-31T08:16:37;172.75;;;136.95;;
44000;SDS011;29660;42.892;24.710;2022-12-31T08:27:01;139.73;;;112.70;;
44000;SDS011;29660;42.892;24.710;2022-12-31T08:37:22;99.43;;;81.20;;
44000;SDS011;29660;42.892;24.710;2022-12-31T08:47:50;143.05;;;110.07;;
44000;SDS011;29660;42.892;24.710;2022-12-31T08:53:03;116.13;;;94.22;;
44000;SDS011;29660;42.892;24.710;2022-12-31T08:58:07;94.38;;;73.20;;
44000;SDS011;29660;42.892;24.710;2022-12-31T09:03:31;67.53;;;52.03;;
44000;SDS011;29660;42.892;24.710;2022-12-31T09:13:59;78.03;;;60.97;;
44000;SDS011;29660;42.892;24.710;2022-12-31T09:19:17;72.85;;;55.40;;
44000;SDS011;29660;42.892;24.710;2022-12-31T09:24:20;53.80;;;41.95;;
44000;SDS011;29660;42.892;24.710;2022-12-31T09:56:36;42.60;;;34.50;;
44000;SDS011;29660;42.892;24.710;2022-12-31T10:45:30;6.75;;;4.85;;
44000;SDS011;29660;42.892;24.710;2022-12-31T11:01:45;13.07;;;10.43;;
44000;SDS011;29660;42.892;24.710;2022-12-31T11:22:57;8.48;;;5.90;;
44000;SDS011;29660;42.892;24.710;2022-12-31T11:28:17;8.48;;;4.30;;
44000;SDS011;29660;42.892;24.710;2022-12-31T11:44:54;6.72;;;4.97;;
44000;SDS011;29660;42.892;24.710;2022-12-31T11:50:14;9.57;;;5.78;;
44000;SDS011;29660;42.892;24.710;2022-12-31T12:00:49;5.82;;;4.40;;
44000;SDS011;29660;42.892;24.710;2022-12-31T12:06:04;3.78;;;2.90;;
44000;SDS011;29660;42.892;24.710;2022-12-31T12:11:09;6.47;;;5.53;;
44000;SDS011;29660;42.892;24.710;2022-12-31T12:16:20;11.32;;;7.70;;
44000;SDS011;29660;42.892;24.710;2022-12-31T12:21:24;5.80;;;5.13;;
44000;SDS011;29660;42.892;24.710;2022-12-31T12:26:36;11.20;;;6.22;;
44000;SDS011;29660;42.892;24.710;2022-12-31T12:32:03;15.98;;;12.18;;
44000;SDS011;29660;42.892;24.710;2022-12-31T12:37:29;9.25;;;8.00;;
44000;SDS011;29660;42.892;24.710;2022-12-31T12:42:44;5.70;;;4.10;;
44000;SDS011;29660;42.892;24.710;2022-12-31T12:47:49;9.82;;;6.78;;
44000;SDS011;29660;42.892;24.710;2022-12-31T12:58:20;4.70;;;3.60;;
44000;SDS011;29660;42.892;24.710;2022-12-31T13:09:34;5.95;;;4.35;;
44000;SDS011;29660;42.892;24.710;2022-12-31T13:20:18;8.45;;;6.30;;
44000;SDS011;29660;42.892;24.710;2022-12-31T13:30:58;12.98;;;9.05;;
44000;SDS011;29660;42.892;24.710;2022-12-31T13:36:15;20.80;;;14.93;;
44000;SDS011;29660;42.892;24.710;2022-12-31T13:41:40;7.85;;;6.28;;
44000;SDS011;29660;42.892;24.710;2022-12-31T14:07:52;12.88;;;8.93;;
44000;SDS011;29660;42.892;24.710;2022-12-31T14:13:03;35.63;;;30.42;;
44000;SDS011;29660;42.892;24.710;2022-12-31T14:18:36;34.08;;;26.38;;
44000;SDS011;29660;42.892;24.710;2022-12-31T14:29:21;31.58;;;21.90;;
44000;SDS011;29660;42.892;24.710;2022-12-31T14:50:34;89.20;;;72.13;;
44000;SDS011;29660;42.892;24.710;2022-12-31T14:55:38;120.43;;;102.18;;
44000;SDS011;29660;42.892;24.710;2022-12-31T15:00:52;110.85;;;91.53;;
44000;SDS011;29660;42.892;24.710;2022-12-31T15:37:39;139.68;;;112.53;;
44000;SDS011;29660;42.892;24.710;2022-12-31T15:42:43;178.32;;;132.30;;
44000;SDS011;29660;42.892;24.710;2022-12-31T15:47:54;135.82;;;102.40;;
44000;SDS011;29660;42.892;24.710;2022-12-31T15:52:59;137.15;;;104.05;;
44000;SDS011;29660;42.892;24.710;2022-12-31T15:58:04;159.70;;;112.85;;
44000;SDS011;29660;42.892;24.710;2022-12-31T16:03:31;195.10;;;142.37;;
44000;SDS011;29660;42.892;24.710;2022-12-31T16:08:33;202.75;;;147.45;;
44000;SDS011;29660;42.892;24.710;2022-12-31T16:13:44;246.68;;;180.63;;
44000;SDS011;29660;42.892;24.710;2022-12-31T16:18:49;223.95;;;158.80;;
44000;SDS011;29660;42.892;24.710;2022-12-31T16:23:52;252.82;;;154.73;;
44000;SDS011;29660;42.892;24.710;2022-12-31T16:28:55;169.30;;;116.80;;
44000;SDS011;29660;42.892;24.710;2022-12-31T16:34:01;178.20;;;129.85;;
44000;SDS011;29660;42.892;24.710;2022-12-31T16:44:38;227.82;;;158.98;;
44000;SDS011;29660;42.892;24.710;2022-12-31T16:49:40;220.18;;;154.43;;
44000;SDS011;29660;42.892;24.710;2022-12-31T16:54:43;192.45;;;136.85;;
44000;SDS011;29660;42.892;24.710;2022-12-31T16:59:48;171.65;;;127.22;;
44000;SDS011;29660;42.892;24.710;2022-12-31T17:04:56;162.48;;;123.38;;
44000;SDS011;29660;42.892;24.710;2022-12-31T17:15:15;175.93;;;125.78;;
44000;SDS011;29660;42.892;24.710;2022-12-31T17:20:25;199.05;;;142.40;;
44000;SDS011;29660;42.892;24.710;2022-12-31T17:25:30;216.93;;;161.55;;
44000;SDS011;29660;42.892;24.710;2022-12-31T17:30:36;200.75;;;147.82;;
44000;SDS011;29660;42.892;24.710;2022-12-31T17:35:41;197.68;;;145.30;;
44000;SDS011;29660;42.892;24.710;2022-12-31T17:40:45;199.73;;;144.02;;
44000;SDS011;29660;42.892;24.710;2022-12-31T17:45:53;212.38;;;161.15;;
44000;SDS011;29660;42.892;24.710;2022-12-31T17:50:56;203.48;;;145.80;;
44000;SDS011;29660;42.892;24.710;2022-12-31T17:56:01;217.68;;;158.93;;
44000;SDS011;29660;42.892;24.710;2022-12-31T18:01:05;191.07;;;135.80;;
44000;SDS011;29660;42.892;24.710;2022-12-31T18:06:09;225.15;;;164.85;;
44000;SDS011;29660;42.892;24.710;2022-12-31T18:11:18;252.75;;;181.07;;
44000;SDS011;29660;42.892;24.710;2022-12-31T18:16:22;264.55;;;194.75;;
44000;SDS011;29660;42.892;24.710;2022-12-31T18:21:31;289.45;;;206.77;;
44000;SDS011;29660;42.892;24.710;2022-12-31T18:26:35;312.40;;;217.07;;
44000;SDS011;29660;42.892;24.710;2022-12-31T18:31:37;277.88;;;198.02;;
44000;SDS011;29660;42.892;24.710;2022-12-31T18:36:40;237.75;;;162.55;;
44000;SDS011;29660;42.892;24.710;2022-12-31T18:41:43;213.98;;;145.73;;
44000;SDS011;29660;42.892;24.710;2022-12-31T18:46:49;173.00;;;128.90;;
44000;SDS011;29660;42.892;24.710;2022-12-31T18:51:51;180.30;;;125.88;;
44000;SDS011;29660;42.892;24.710;2022-12-31T18:56:54;175.35;;;132.32;;
44000;SDS011;29660;42.892;24.710;2022-12-31T19:01:57;214.15;;;151.13;;
44000;SDS011;29660;42.892;24.710;2022-12-31T19:06:59;228.55;;;160.52;;
44000;SDS011;29660;42.892;24.710;2022-12-31T19:12:01;219.35;;;152.55;;
44000;SDS011;29660;42.892;24.710;2022-12-31T19:17:05;201.07;;;141.43;;
44000;SDS011;29660;42.892;24.710;2022-12-31T19:22:05;233.88;;;161.43;;
44000;SDS011;29660;42.892;24.710;2022-12-31T19:27:10;193.95;;;143.35;;
44000;SDS011;29660;42.892;24.710;2022-12-31T19:32:15;193.05;;;138.52;;
44000;SDS011;29660;42.892;24.710;2022-12-31T19:37:17;343.00;;;250.52;;
44000;SDS011;29660;42.892;24.710;2022-12-31T19:42:19;259.17;;;160.77;;
44000;SDS011;29660;42.892;24.710;2022-12-31T19:47:21;214.70;;;148.60;;
44000;SDS011;29660;42.892;24.710;2022-12-31T19:52:23;235.85;;;154.52;;
44000;SDS011;29660;42.892;24.710;2022-12-31T19:57:25;314.80;;;214.70;;
44000;SDS011;29660;42.892;24.710;2022-12-31T20:02:27;269.02;;;176.73;;
44000;SDS011;29660;42.892;24.710;2022-12-31T20:07:29;281.90;;;182.80;;
44000;SDS011;29660;42.892;24.710;2022-12-31T20:12:31;266.30;;;181.63;;
44000;SDS011;29660;42.892;24.710;2022-12-31T20:17:33;280.55;;;189.10;;
44000;SDS011;29660;42.892;24.710;2022-12-31T20:22:35;285.13;;;193.98;;
44000;SDS011;29660;42.892;24.710;2022-12-31T20:27:37;251.02;;;181.00;;
44000;SDS011;29660;42.892;24.710;2022-12-31T20:32:39;304.83;;;196.65;;
44000;SDS011;29660;42.892;24.710;2022-12-31T20:37:41;373.17;;;234.63;;
44000;SDS011;29660;42.892;24.710;2022-12-31T20:42:43;291.77;;;193.13;;
44000;SDS011;29660;42.892;24.710;2022-12-31T20:47:45;224.93;;;141.52;;
44000;SDS011;29660;42.892;24.710;2022-12-31T20:52:46;231.85;;;150.27;;
44000;SDS011;29660;42.892;24.710;2022-12-31T20:57:48;253.27;;;178.73;;
44000;SDS011;29660;42.892;24.710;2022-12-31T21:02:50;360.10;;;234.93;;
44000;SDS011;29660;42.892;24.710;2022-12-31T21:08:04;256.25;;;171.48;;
44000;SDS011;29660;42.892;24.710;2022-12-31T21:13:06;276.73;;;190.07;;
44000;SDS011;29660;42.892;24.710;2022-12-31T21:18:08;253.02;;;171.60;;
44000;SDS011;29660;42.892;24.710;2022-12-31T21:23:10;205.32;;;142.57;;
44000;SDS011;29660;42.892;24.710;2022-12-31T21:28:12;219.60;;;152.23;;
44000;SDS011;29660;42.892;24.710;2022-12-31T21:33:14;229.27;;;158.80;;
44000;SDS011;29660;42.892;24.710;2022-12-31T21:38:16;214.95;;;158.25;;
44000;SDS011;29660;42.892;24.710;2022-12-31T21:43:18;214.18;;;156.18;;
44000;SDS011;29660;42.892;24.710;2022-12-31T21:48:21;218.38;;;149.75;;
44000;SDS011;29660;42.892;24.710;2022-12-31T21:53:25;209.48;;;138.82;;
44000;SDS011;29660;42.892;24.710;2022-12-31T21:58:40;172.60;;;114.68;;
44000;SDS011;29660;42.892;24.710;2022-12-31T22:03:44;161.23;;;103.67;;
44000;SDS011;29660;42.892;24.710;2022-12-31T22:08:47;185.18;;;121.75;;
44000;SDS011;29660;42.892;24.710;2022-12-31T22:13:51;216.85;;;137.02;;
44000;SDS011;29660;42.892;24.710;2022-12-31T22:18:54;183.98;;;123.90;;
44000;SDS011;29660;42.892;24.710;2022-12-31T22:23:57;237.27;;;161.30;;
44000;SDS011;29660;42.892;24.710;2022-12-31T22:28:59;207.13;;;140.45;;
44000;SDS011;29660;42.892;24.710;2022-12-31T22:34:01;204.75;;;144.13;;
44000;SDS011;29660;42.892;24.710;2022-12-31T22:39:03;215.35;;;159.40;;
44000;SDS011;29660;42.892;24.710;2022-12-31T22:44:05;320.80;;;243.18;;
44000;SDS011;29660;42.892;24.710;2022-12-31T22:49:08;236.43;;;175.32;;
44000;SDS011;29660;42.892;24.710;2022-12-31T22:54:11;325.00;;;235.40;;
44000;SDS011;29660;42.892;24.710;2022-12-31T22:59:13;189.05;;;135.30;;
44000;SDS011;29660;42.892;24.710;2022-12-31T23:04:15;157.30;;;115.55;;
44000;SDS011;29660;42.892;24.710;2022-12-31T23:09:17;152.80;;;104.78;;
44000;SDS011;29660;42.892;24.710;2022-12-31T23:14:37;153.05;;;107.28;;
44000;SDS011;29660;42.892;24.710;2022-12-31T23:19:58;159.75;;;112.22;;
44000;SDS011;29660;42.892;24.710;2022-12-31T23:25:19;118.93;;;84.28;;
44000;SDS011;29660;42.892;24.710;2022-12-31T23:30:40;162.23;;;119.97;;
44000;SDS011;29660;42.892;24.710;2022-12-31T23:35:43;139.70;;;99.20;;
44000;SDS011;29660;42.892;24.710;2022-12-31T23:40:45;110.78;;;76.32;;
44000;SDS011;29660;42.892;24.710;2022-12-31T23:45:50;101.68;;;69.35;;
44000;SDS011;29660;42.892;24.710;2022-12-31T23:50:53;82.55;;;57.53;;
44000;SDS011;29660;42.892;24.710;2022-12-31T23:55:55;68.93;;;48.75;;
